createdAt,value
2023-05-23T00:00:20.158Z,99004.88
2023-05-23T00:02:47.487Z,99024.59
2023-05-23T00:05:15.671Z,99016.97
2023-05-23T00:07:43.178Z,99010.50
2023-05-23T00:10:10.569Z,99015.34
2023-05-23T00:12:42.826Z,99010.06
2023-05-23T00:15:10.202Z,99019.63
2023-05-23T00:17:38.435Z,99025.16
2023-05-23T00:20:09.758Z,99004.09
2023-05-23T00:22:40.118Z,99027.69
2023-05-23T00:25:08.112Z,99014.94
2023-05-23T00:27:35.197Z,99013.31
2023-05-23T00:30:02.722Z,99026.91
2023-05-23T00:32:29.721Z,99023.91
2023-05-23T00:34:56.702Z,99010.09
2023-05-23T00:37:23.824Z,99018.50
2023-05-23T00:39:50.969Z,99001.78
2023-05-23T00:42:18.027Z,99026.44
2023-05-23T00:44:45.248Z,99015.13
2023-05-23T00:47:14.182Z,99031.16
2023-05-23T00:49:41.684Z,99019.41
2023-05-23T00:52:09.141Z,99013.75
2023-05-23T00:54:37.030Z,99012.59
2023-05-23T00:57:04.419Z,99010.06
2023-05-23T00:59:32.490Z,99017.66
2023-05-23T01:02:01.113Z,99014.22
2023-05-23T01:04:28.617Z,99018.00
2023-05-23T01:06:56.658Z,99019.63
2023-05-23T01:09:25.162Z,99021.13
2023-05-23T01:12:15.895Z,99020.06
2023-05-23T01:14:59.776Z,99017.72
2023-05-23T01:17:55.541Z,99018.28
2023-05-23T01:20:28.325Z,99018.97
2023-05-23T01:23:01.216Z,99020.13
2023-05-23T01:26:07.238Z,99023.34
2023-05-23T01:28:40.803Z,99019.53
2023-05-23T01:31:11.249Z,99025.41
2023-05-23T01:33:41.419Z,99023.81
2023-05-23T01:36:09.499Z,99007.53
2023-05-23T01:38:36.493Z,99018.72
2023-05-23T01:41:03.802Z,99023.16
2023-05-23T01:43:31.689Z,99024.66
2023-05-23T01:46:01.152Z,99019.16
2023-05-23T01:48:29.298Z,99016.00
2023-05-23T01:50:58.742Z,99007.25
2023-05-23T01:53:27.546Z,99016.16
2023-05-23T01:55:55.057Z,99019.84
2023-05-23T01:58:22.633Z,99009.34
2023-05-23T02:00:50.137Z,99022.47
2023-05-23T02:03:17.342Z,99021.00
2023-05-23T02:05:44.779Z,99013.50
2023-05-23T02:08:11.967Z,99007.66
2023-05-23T02:10:39.097Z,99014.66
2023-05-23T02:13:05.961Z,99018.50
2023-05-23T02:15:32.879Z,99025.47
2023-05-23T02:17:59.818Z,99024.91
2023-05-23T02:20:26.908Z,99022.88
2023-05-23T02:22:54.049Z,99034.16
2023-05-23T02:25:20.889Z,99029.34
2023-05-23T02:27:48.067Z,99026.09
2023-05-23T02:30:15.470Z,99036.34
2023-05-23T02:32:42.857Z,99026.00
2023-05-23T02:35:11.227Z,99019.31
2023-05-23T02:37:38.478Z,99036.50
2023-05-23T02:40:08.020Z,99037.63
2023-05-23T02:42:36.590Z,99019.88
2023-05-23T02:45:03.956Z,99024.72
2023-05-23T02:47:31.401Z,99037.16
2023-05-23T02:49:58.592Z,99038.09
2023-05-23T02:52:26.038Z,99026.00
2023-05-23T02:54:53.497Z,99030.72
2023-05-23T02:57:20.742Z,99041.34
2023-05-23T02:59:47.899Z,99039.25
2023-05-23T03:02:15.305Z,99039.84
2023-05-23T03:04:42.288Z,99033.03
2023-05-23T03:07:20.392Z,99048.25
2023-05-23T03:09:54.728Z,99046.09
2023-05-23T03:12:22.580Z,99038.59
2023-05-23T03:14:49.622Z,99029.63
2023-05-23T03:17:16.933Z,99040.84
2023-05-23T03:19:43.769Z,99051.22
2023-05-23T03:22:11.003Z,99042.13
2023-05-23T03:24:38.213Z,99034.28
2023-05-23T03:27:05.980Z,99031.88
2023-05-23T03:29:33.132Z,99055.59
2023-05-23T03:32:00.302Z,99051.78
2023-05-23T03:34:27.917Z,99041.41
2023-05-23T03:36:54.957Z,99051.78
2023-05-23T03:39:23.087Z,99050.41
2023-05-23T03:41:50.052Z,99045.13
2023-05-23T03:44:17.266Z,99052.97
2023-05-23T03:46:44.748Z,99057.34
2023-05-23T03:49:12.562Z,99061.84
2023-05-23T03:51:39.697Z,99053.31
2023-05-23T03:54:07.007Z,99065.28
2023-05-23T03:56:33.961Z,99061.31
2023-05-23T03:59:01.676Z,99056.88
2023-05-23T04:01:28.899Z,99058.16
2023-05-23T04:03:56.437Z,99061.34
2023-05-23T04:06:26.631Z,99068.22
2023-05-23T04:08:53.899Z,99082.31
2023-05-23T04:11:22.531Z,99075.03
2023-05-23T04:13:52.261Z,99075.13
2023-05-23T04:16:19.640Z,99060.09
2023-05-23T04:18:48.465Z,99062.97
2023-05-23T04:21:15.741Z,99076.13
2023-05-23T04:23:58.729Z,99077.75
2023-05-23T04:26:25.862Z,99065.47
2023-05-23T04:28:54.725Z,99055.09
2023-05-23T04:31:24.798Z,99071.31
2023-05-23T04:33:52.647Z,99084.63
2023-05-23T04:36:20.622Z,99074.13
2023-05-23T04:38:52.715Z,99070.44
2023-05-23T04:41:23.667Z,99063.66
2023-05-23T04:44:10.434Z,99075.53
2023-05-23T04:46:46.251Z,99074.53
2023-05-23T04:49:17.658Z,99073.16
2023-05-23T04:51:44.955Z,99073.06
2023-05-23T04:54:27.343Z,99087.16
2023-05-23T04:56:55.396Z,99081.25
2023-05-23T04:59:24.400Z,99085.00
2023-05-23T05:01:51.364Z,99074.03
2023-05-23T05:04:19.882Z,99085.97
2023-05-23T05:06:48.747Z,99091.50
2023-05-23T05:09:16.201Z,99086.09
2023-05-23T05:11:44.077Z,99080.25
2023-05-23T05:14:11.128Z,99072.72
2023-05-23T05:16:38.369Z,99077.47
2023-05-23T05:19:06.693Z,99080.41
2023-05-23T05:21:33.894Z,99074.88
2023-05-23T05:24:01.763Z,99084.47
2023-05-23T05:26:28.841Z,99083.38
2023-05-23T05:28:57.289Z,99084.78
2023-05-23T05:31:24.536Z,99088.50
2023-05-23T05:33:51.551Z,99089.47
2023-05-23T05:36:20.086Z,99094.28
2023-05-23T05:38:47.897Z,99103.09
2023-05-23T05:41:16.945Z,99102.78
2023-05-23T05:43:49.798Z,99101.75
2023-05-23T05:46:16.932Z,99102.19
2023-05-23T05:48:44.612Z,99113.94
2023-05-23T05:51:13.609Z,99106.53
2023-05-23T05:53:42.003Z,99098.66
2023-05-23T05:56:09.468Z,99108.47
2023-05-23T05:58:38.630Z,99106.19
2023-05-23T06:01:08.386Z,99088.97
2023-05-23T06:03:35.882Z,99109.72
2023-05-23T06:06:03.503Z,99111.50
2023-05-23T06:08:30.661Z,99103.97
2023-05-23T06:10:57.737Z,99104.50
2023-05-23T06:13:26.368Z,99102.09
2023-05-23T06:15:54.472Z,99100.28
2023-05-23T06:18:22.374Z,99105.50
2023-05-23T06:20:51.433Z,99096.47
2023-05-23T06:23:20.665Z,99096.78
2023-05-23T06:25:48.202Z,99108.59
2023-05-23T06:28:15.374Z,99096.59
2023-05-23T06:30:42.888Z,99098.88
2023-05-23T06:33:10.305Z,99094.50
2023-05-23T06:35:37.478Z,99083.78
2023-05-23T06:38:04.350Z,99079.69
2023-05-23T06:40:31.880Z,99074.31
2023-05-23T06:42:59.189Z,99075.75
2023-05-23T06:46:01.473Z,99079.84
2023-05-23T06:48:29.076Z,99079.75
2023-05-23T06:50:56.176Z,99079.91
2023-05-23T06:53:23.770Z,99088.56
2023-05-23T06:55:51.479Z,99092.75
2023-05-23T06:58:25.270Z,99092.53
2023-05-23T07:00:55.168Z,99095.47
2023-05-23T07:03:31.791Z,99088.72
2023-05-23T07:06:03.403Z,99085.22
2023-05-23T07:08:31.171Z,99091.38
2023-05-23T07:11:00.212Z,99080.38
2023-05-23T07:13:43.150Z,99082.16
2023-05-23T07:16:17.340Z,99071.53
2023-05-23T07:19:05.822Z,99067.13
2023-05-23T07:21:36.809Z,99077.31
2023-05-23T07:24:04.544Z,99064.38
2023-05-23T07:26:32.250Z,99071.56
2023-05-23T07:28:59.984Z,99087.59
2023-05-23T07:31:27.457Z,99077.25
2023-05-23T07:33:58.114Z,99078.88
2023-05-23T07:36:34.223Z,99083.69
2023-05-23T07:39:04.498Z,99090.84
2023-05-23T07:41:31.604Z,99085.91
2023-05-23T07:43:58.884Z,99094.28
2023-05-23T07:46:26.171Z,99085.06
2023-05-23T07:48:53.519Z,99081.84
2023-05-23T07:51:21.592Z,99074.72
2023-05-23T07:53:50.644Z,99082.31
2023-05-23T07:56:19.502Z,99068.47
2023-05-23T07:58:46.589Z,99068.56
2023-05-23T08:01:13.787Z,99073.78
2023-05-23T08:04:02.157Z,99076.53
2023-05-23T08:06:35.539Z,99086.59
2023-05-23T08:09:06.989Z,99081.78
2023-05-23T08:11:38.571Z,99074.19
2023-05-23T08:14:07.019Z,99063.84
2023-05-23T08:16:38.045Z,99073.09
2023-05-23T08:19:16.089Z,99069.56
2023-05-23T08:21:44.135Z,99081.56
2023-05-23T08:24:14.952Z,99077.56
2023-05-23T08:26:42.998Z,99074.75
2023-05-23T08:29:12.363Z,99066.34
2023-05-23T08:31:40.771Z,99070.38
2023-05-23T08:34:09.054Z,99079.16
2023-05-23T08:36:40.392Z,99073.56
2023-05-23T08:39:11.737Z,99077.97
2023-05-23T08:41:55.786Z,99079.16
2023-05-23T08:44:22.948Z,99072.78
2023-05-23T08:46:55.553Z,99059.94
2023-05-23T08:49:41.233Z,99066.34
2023-05-23T08:52:13.029Z,99073.94
2023-05-23T08:54:44.337Z,99072.78
2023-05-23T08:57:13.768Z,99073.94
2023-05-23T08:59:47.348Z,99075.97
2023-05-23T09:02:16.655Z,99077.97
2023-05-23T09:04:46.752Z,99074.78
2023-05-23T09:07:19.941Z,99075.13
2023-05-23T09:09:51.054Z,99073.56
2023-05-23T09:12:18.738Z,99063.50
2023-05-23T09:14:48.702Z,99061.56
2023-05-23T09:17:19.626Z,99068.38
2023-05-23T09:19:47.621Z,99068.75
2023-05-23T09:22:27.119Z,99072.75
2023-05-23T09:25:03.813Z,99067.53
2023-05-23T09:27:31.829Z,99059.13
2023-05-23T09:30:04.969Z,99062.31
2023-05-23T09:32:32.306Z,99050.69
2023-05-23T09:35:00.966Z,99055.78
2023-05-23T09:37:41.037Z,99051.38
2023-05-23T09:40:10.589Z,99052.59
2023-05-23T09:42:47.599Z,99051.75
2023-05-23T09:45:16.609Z,99049.44
2023-05-23T09:47:53.693Z,99058.97
2023-05-23T09:50:21.979Z,99051.00
2023-05-23T09:52:51.445Z,99048.16
2023-05-23T09:55:19.205Z,99045.72
2023-05-23T09:57:53.709Z,99024.91
2023-05-23T10:00:20.877Z,99037.47
2023-05-23T10:03:10.969Z,99040.97
2023-05-23T10:05:47.836Z,99036.66
2023-05-23T10:08:27.662Z,99046.88
2023-05-23T10:10:57.784Z,99050.56
2023-05-23T10:13:29.527Z,99034.00
2023-05-23T10:16:27.330Z,99033.72
2023-05-23T10:19:03.438Z,99040.88
2023-05-23T10:21:36.309Z,99032.66
2023-05-23T10:24:07.524Z,99035.59
2023-05-23T10:26:34.415Z,99038.28
2023-05-23T10:29:02.368Z,99034.91
2023-05-23T10:31:30.322Z,99026.25
2023-05-23T10:34:05.151Z,99024.63
2023-05-23T10:39:11.872Z,99018.25
2023-05-23T10:41:52.194Z,99016.13
2023-05-23T10:44:29.041Z,99013.19
2023-05-23T10:47:01.511Z,99014.00
2023-05-23T10:49:39.280Z,99013.25
2023-05-23T10:52:07.480Z,98998.00
2023-05-23T10:54:36.250Z,99004.31
2023-05-23T10:57:05.095Z,99010.88
2023-05-23T10:59:32.388Z,99014.41
2023-05-23T11:02:01.148Z,99024.13
2023-05-23T11:04:29.665Z,99007.44
2023-05-23T11:06:57.982Z,99010.25
2023-05-23T11:09:24.930Z,99001.88
2023-05-23T11:11:54.966Z,99001.81
2023-05-23T11:14:35.281Z,98988.59
2023-05-23T11:17:19.947Z,99000.91
2023-05-23T11:20:10.016Z,98997.19
2023-05-23T11:22:37.235Z,98999.44
2023-05-23T11:25:10.471Z,98997.97
2023-05-23T11:27:40.032Z,98990.88
2023-05-23T11:30:10.300Z,98995.03
2023-05-23T11:32:37.901Z,98991.84
2023-05-23T11:35:10.206Z,98993.50
2023-05-23T11:37:40.870Z,98990.47
2023-05-23T11:40:28.043Z,98986.84
2023-05-23T11:42:56.534Z,98984.75
2023-05-23T11:45:24.434Z,98992.44
2023-05-23T11:47:51.828Z,98994.84
2023-05-23T11:50:20.720Z,98970.97
2023-05-23T11:52:51.963Z,98967.88
2023-05-23T11:55:23.020Z,98970.69
2023-05-23T11:57:52.076Z,98971.00
2023-05-23T12:00:19.853Z,98974.59
2023-05-23T12:02:50.644Z,98974.78
2023-05-23T12:05:18.336Z,98960.94
2023-05-23T12:07:49.932Z,98964.72
2023-05-23T12:10:18.326Z,98963.19
2023-05-23T12:12:45.663Z,98950.25
2023-05-23T12:15:13.392Z,98961.56
2023-05-23T12:17:47.391Z,98946.16
2023-05-23T12:20:14.774Z,98942.75
2023-05-23T12:22:42.745Z,98936.88
2023-05-23T12:25:13.425Z,98927.69
2023-05-23T12:27:44.299Z,98936.88
2023-05-23T12:30:16.754Z,98922.47
2023-05-23T12:32:47.420Z,98928.91
2023-05-23T12:35:16.076Z,98943.41
2023-05-23T12:37:47.204Z,98940.75
2023-05-23T12:40:19.054Z,98929.66
2023-05-23T12:42:56.432Z,98938.91
2023-05-23T12:45:35.014Z,98920.69
2023-05-23T12:48:02.982Z,98934.72
2023-05-23T12:50:31.128Z,98915.25
2023-05-23T12:52:59.004Z,98931.03
2023-05-23T12:55:26.387Z,98917.22
2023-05-23T12:57:53.619Z,98924.69
2023-05-23T13:00:22.191Z,98922.47
2023-05-23T13:02:50.485Z,98922.75
2023-05-23T13:05:18.049Z,98917.31
2023-05-23T13:07:48.197Z,98916.59
2023-05-23T13:10:15.612Z,98921.00
2023-05-23T13:12:43.303Z,98903.69
2023-05-23T13:15:12.486Z,98905.41
2023-05-23T13:17:39.773Z,98921.19
2023-05-23T13:20:09.635Z,98921.66
2023-05-23T13:22:36.684Z,98924.50
2023-05-23T13:25:04.080Z,98911.50
2023-05-23T13:27:30.993Z,98907.81
2023-05-23T13:29:58.124Z,98920.00
2023-05-23T13:32:24.976Z,98918.44
2023-05-23T13:34:52.129Z,98907.91
2023-05-23T13:37:19.532Z,98910.31
2023-05-23T13:39:46.497Z,98920.69
2023-05-23T13:42:13.842Z,98919.25
2023-05-23T13:44:41.088Z,98912.09
2023-05-23T13:47:15.232Z,98911.41
2023-05-23T13:49:43.252Z,98901.69
2023-05-23T13:52:11.003Z,98911.69
2023-05-23T13:54:38.493Z,98907.53
2023-05-23T13:57:07.030Z,98910.72
2023-05-23T13:59:34.340Z,98909.28
2023-05-23T14:02:01.516Z,98913.50
2023-05-23T14:04:28.958Z,98917.19
2023-05-23T14:06:56.055Z,98905.94
2023-05-23T14:09:23.525Z,98912.34
2023-05-23T14:11:52.334Z,98914.88
2023-05-23T14:14:19.491Z,98906.34
2023-05-23T14:16:47.095Z,98907.28
2023-05-23T14:19:14.140Z,98900.72
2023-05-23T14:21:44.008Z,98917.38
2023-05-23T14:24:12.224Z,98903.03
2023-05-23T14:26:39.574Z,98904.69
2023-05-23T14:29:06.531Z,98909.16
2023-05-23T14:31:33.431Z,98900.63
2023-05-23T14:34:00.839Z,98895.69
2023-05-23T14:36:28.813Z,98895.41
2023-05-23T14:38:55.696Z,98895.69
2023-05-23T14:41:23.026Z,98893.13
2023-05-23T14:43:50.231Z,98879.53
2023-05-23T14:46:18.644Z,98903.56
2023-05-23T14:48:45.646Z,98894.47
2023-05-23T14:51:21.465Z,98902.28
2023-05-23T14:53:57.728Z,98896.13
2023-05-23T14:56:24.918Z,98892.44
2023-05-23T14:58:52.286Z,98899.22
2023-05-23T15:01:19.226Z,98898.81
2023-05-23T15:03:46.353Z,98895.13
2023-05-23T15:06:13.710Z,98897.16
2023-05-23T15:08:41.470Z,98880.03
2023-05-23T15:11:10.033Z,98892.78
2023-05-23T15:13:36.983Z,98894.00
2023-05-23T15:16:04.605Z,98879.81
2023-05-23T15:18:40.534Z,98889.44
2023-05-23T15:21:09.299Z,98886.63
2023-05-23T15:23:36.707Z,98881.63
2023-05-23T15:26:03.702Z,98880.50
2023-05-23T15:28:30.648Z,98878.69
2023-05-23T15:30:59.115Z,98891.06
2023-05-23T15:33:26.247Z,98878.25
2023-05-23T15:35:54.113Z,98894.13
2023-05-23T15:38:21.345Z,98882.91
2023-05-23T15:40:49.109Z,98890.28
2023-05-23T15:43:16.618Z,98891.63
2023-05-23T15:45:43.803Z,98893.44
2023-05-23T15:48:11.585Z,98888.59
2023-05-23T15:50:38.908Z,98891.63
2023-05-23T15:53:06.537Z,98891.38
2023-05-23T15:55:33.410Z,98898.88
2023-05-23T15:58:00.224Z,98887.66
2023-05-23T16:00:27.532Z,98893.03
2023-05-23T16:02:54.733Z,98905.19
2023-05-23T16:05:21.891Z,98891.16
2023-05-23T16:07:49.131Z,98889.97
2023-05-23T16:10:16.139Z,98893.84
2023-05-23T16:12:43.298Z,98889.50
2023-05-23T16:15:10.769Z,98890.00
2023-05-23T16:17:38.062Z,98883.91
2023-05-23T16:20:05.318Z,98897.09
2023-05-23T16:22:32.653Z,98870.44
2023-05-23T16:24:59.665Z,98895.13
2023-05-23T16:27:26.682Z,98889.53
2023-05-23T16:29:53.603Z,98887.66
2023-05-23T16:32:20.903Z,98895.25
2023-05-23T16:34:52.869Z,98895.56
2023-05-23T16:37:21.605Z,98893.41
2023-05-23T16:39:48.515Z,98894.66
2023-05-23T16:42:15.750Z,98892.03
2023-05-23T16:44:42.863Z,98895.88
2023-05-23T16:47:09.834Z,98898.75
2023-05-23T16:49:36.930Z,98902.47
2023-05-23T16:52:03.892Z,98908.94
2023-05-23T16:54:30.998Z,98895.50
2023-05-23T16:57:01.913Z,98895.56
2023-05-23T16:59:30.061Z,98901.22
2023-05-23T17:01:57.447Z,98906.84
2023-05-23T17:04:30.825Z,98906.47
2023-05-23T17:06:59.812Z,98906.09
2023-05-23T17:09:27.746Z,98910.13
2023-05-23T17:11:55.060Z,98911.34
2023-05-23T17:14:22.706Z,98906.63
2023-05-23T17:16:49.831Z,98899.44
2023-05-23T17:19:17.225Z,98920.66
2023-05-23T17:21:44.277Z,98910.22
2023-05-23T17:24:11.476Z,98913.41
2023-05-23T17:26:38.771Z,98914.22
2023-05-23T17:29:05.807Z,98916.59
2023-05-23T17:31:32.943Z,98915.00
2023-05-23T17:33:59.976Z,98918.97
2023-05-23T17:36:27.138Z,98922.97
2023-05-23T17:38:54.401Z,98925.28
2023-05-23T17:41:24.569Z,98924.03
2023-05-23T17:44:16.298Z,98929.97
2023-05-23T17:46:46.796Z,98921.97
2023-05-23T17:49:13.828Z,98913.94
2023-05-23T17:51:40.713Z,98906.69
2023-05-23T17:54:07.808Z,98900.19
2023-05-23T17:56:34.765Z,98942.56
2023-05-23T17:59:05.254Z,98942.44
2023-05-23T18:01:32.592Z,98943.97
2023-05-23T18:04:00.183Z,98940.75
2023-05-23T18:06:29.816Z,98935.88
2023-05-23T18:08:57.115Z,98943.44
2023-05-23T18:11:24.412Z,98954.13
2023-05-23T18:13:51.646Z,98954.84
2023-05-23T18:16:18.690Z,98963.56
2023-05-23T18:18:45.884Z,98957.06
2023-05-23T18:21:13.483Z,98974.69
2023-05-23T18:24:05.894Z,98971.34
2023-05-23T18:26:42.298Z,98972.72
2023-05-23T18:29:12.530Z,98976.59
2023-05-23T18:31:39.561Z,98980.06
2023-05-23T18:34:06.899Z,98978.50
2023-05-23T18:36:34.055Z,98985.16
2023-05-23T18:39:01.271Z,98990.75
2023-05-23T18:41:34.903Z,98993.03
2023-05-23T18:44:02.372Z,98987.41
2023-05-23T18:46:30.306Z,98998.88
2023-05-23T18:49:00.330Z,98977.91
2023-05-23T18:51:27.711Z,98995.91
2023-05-23T18:53:54.796Z,98987.81
2023-05-23T18:56:23.234Z,98995.31
2023-05-23T18:58:51.825Z,98999.22
2023-05-23T19:01:19.028Z,99001.81
2023-05-23T19:03:46.485Z,99008.56
2023-05-23T19:06:13.750Z,99002.44
2023-05-23T19:08:42.674Z,99008.41
2023-05-23T19:11:10.929Z,99009.88
2023-05-23T19:13:37.789Z,99022.22
2023-05-23T19:16:05.130Z,99010.16
2023-05-23T19:18:32.311Z,99018.13
2023-05-23T19:20:59.375Z,99021.16
2023-05-23T19:23:26.593Z,99022.72
2023-05-23T19:25:53.611Z,99023.78
2023-05-23T19:28:20.666Z,99020.06
2023-05-23T19:30:47.904Z,99022.69
2023-05-23T19:33:15.830Z,99033.38
2023-05-23T19:35:43.933Z,99029.59
2023-05-23T19:38:11.495Z,99021.50
2023-05-23T19:40:38.812Z,99032.22
2023-05-23T19:43:07.224Z,99038.50
2023-05-23T19:45:34.164Z,99027.97
2023-05-23T19:48:01.874Z,99020.81
2023-05-23T19:50:44.556Z,99025.78
2023-05-23T19:53:11.986Z,99033.78
2023-05-23T19:55:39.000Z,99039.78
2023-05-23T19:58:06.240Z,99051.63
2023-05-23T20:00:33.205Z,99025.56
2023-05-23T20:03:00.354Z,99036.34
2023-05-23T20:05:27.729Z,99042.63
2023-05-23T20:07:54.647Z,99041.75
2023-05-23T20:10:21.719Z,99040.13
2023-05-23T20:12:48.993Z,99025.53
2023-05-23T20:15:21.771Z,99024.72
2023-05-23T20:17:54.911Z,99047.09
2023-05-23T20:20:22.019Z,99028.97
2023-05-23T20:22:49.293Z,99032.84
2023-05-23T20:25:17.651Z,99031.78
2023-05-23T20:27:44.653Z,99018.56
2023-05-23T20:30:12.313Z,99030.03
2023-05-23T20:32:39.394Z,99033.00
2023-05-23T20:35:06.893Z,99039.28
2023-05-23T20:37:34.809Z,99040.38
2023-05-23T20:40:02.146Z,99048.53
2023-05-23T20:42:31.104Z,99051.75
2023-05-23T20:44:58.448Z,99033.34
2023-05-23T20:47:25.817Z,99029.84
2023-05-23T20:49:52.964Z,99027.16
2023-05-23T20:52:19.824Z,99006.66
2023-05-23T20:54:48.175Z,99015.25
2023-05-23T20:57:15.136Z,99028.22
2023-05-23T20:59:42.170Z,99029.66
2023-05-23T21:02:09.330Z,99032.72
2023-05-23T21:04:36.341Z,99023.84
2023-05-23T21:07:03.435Z,99034.13
2023-05-23T21:09:30.455Z,99036.56
2023-05-23T21:12:08.589Z,99039.59
2023-05-23T21:14:35.602Z,99028.31
2023-05-23T21:17:03.399Z,99038.59
2023-05-23T21:19:30.669Z,99020.06
2023-05-23T21:21:57.889Z,99036.09
2023-05-23T21:24:25.406Z,99044.22
2023-05-23T21:26:52.686Z,99060.53
2023-05-23T21:29:19.661Z,99049.94
2023-05-23T21:31:46.828Z,99058.72
2023-05-23T21:34:22.500Z,99062.91
2023-05-23T21:36:52.023Z,99074.34
2023-05-23T21:39:19.117Z,99071.38
2023-05-23T21:41:46.287Z,99063.31
2023-05-23T21:44:13.906Z,99040.75
2023-05-23T21:46:41.030Z,99065.63
2023-05-23T21:49:08.005Z,99066.50
2023-05-23T21:51:34.895Z,99064.69
2023-05-23T21:54:02.400Z,99068.75
2023-05-23T21:56:29.607Z,99065.38
2023-05-23T21:58:56.436Z,99063.47
2023-05-23T22:01:23.579Z,99048.59
2023-05-23T22:03:51.304Z,99069.56
2023-05-23T22:06:18.640Z,99066.59
2023-05-23T22:08:46.327Z,99058.06
2023-05-23T22:11:13.552Z,99072.28
2023-05-23T22:13:40.807Z,99063.22
2023-05-23T22:16:08.034Z,99064.38
2023-05-23T22:18:50.839Z,99072.69
2023-05-23T22:21:19.058Z,99051.25
2023-05-23T22:23:46.076Z,99069.69
2023-05-23T22:26:13.053Z,99072.00
2023-05-23T22:28:39.955Z,99055.66
2023-05-23T22:31:07.174Z,99051.72
2023-05-23T22:33:34.336Z,99065.00
2023-05-23T22:36:01.359Z,99067.41
2023-05-23T22:38:28.485Z,99065.34
2023-05-23T22:40:55.446Z,99058.88
2023-05-23T22:43:22.337Z,99060.75
2023-05-23T22:45:50.312Z,99060.56
2023-05-23T22:48:19.405Z,99057.22
2023-05-23T22:50:46.882Z,99056.66
2023-05-23T22:53:16.776Z,99054.00
2023-05-23T22:55:43.819Z,99054.59
2023-05-23T22:58:11.037Z,99048.13
2023-05-23T23:00:38.045Z,99053.78
2023-05-23T23:03:05.134Z,99049.53
2023-05-23T23:05:32.169Z,99049.53
2023-05-23T23:07:59.071Z,99009.81
2023-05-23T23:10:26.023Z,99040.50
2023-05-23T23:12:52.895Z,99037.03
2023-05-23T23:15:20.193Z,99032.44
2023-05-23T23:17:47.670Z,99033.13
2023-05-23T23:20:14.991Z,99029.88
2023-05-23T23:22:42.282Z,99021.84
2023-05-23T23:25:10.796Z,99033.22
2023-05-23T23:27:38.721Z,99039.56
2023-05-23T23:30:06.732Z,99036.22
2023-05-23T23:32:34.356Z,99013.66
2023-05-23T23:35:01.836Z,99009.72
2023-05-23T23:37:29.031Z,99037.50
2023-05-23T23:39:56.172Z,99034.38
2023-05-23T23:42:23.317Z,99034.50
2023-05-23T23:44:50.276Z,99026.31
2023-05-23T23:47:17.244Z,99023.22
2023-05-23T23:49:44.146Z,99039.13
2023-05-23T23:52:11.276Z,99028.28
2023-05-23T23:54:38.336Z,99040.72
2023-05-23T23:57:06.706Z,99028.50
2023-05-23T23:59:33.719Z,99021.13
